createdAt,value
2022-11-03T00:00:24.139Z,49
2022-11-03T00:15:24.327Z,35
2022-11-03T00:30:23.842Z,39
2022-11-03T00:45:24.293Z,37
2022-11-03T01:00:24.498Z,43
2022-11-03T01:15:24.066Z,39
2022-11-03T01:30:23.966Z,40
2022-11-03T01:45:24.291Z,33
2022-11-03T02:00:24.287Z,41
2022-11-03T02:15:24.201Z,35
2022-11-03T02:30:24.432Z,39
2022-11-03T02:45:24.511Z,43
2022-11-03T03:00:24.471Z,35
2022-11-03T03:15:24.249Z,33
2022-11-03T03:30:24.296Z,38
2022-11-03T03:45:24.673Z,41
2022-11-03T04:00:24.483Z,68
2022-11-03T04:15:24.687Z,46
2022-11-03T04:30:24.631Z,56
2022-11-03T04:45:23.969Z,39
2022-11-03T05:00:24.465Z,37
2022-11-03T05:15:24.247Z,35
2022-11-03T05:30:24.644Z,41
2022-11-03T05:45:24.580Z,34
2022-11-03T06:00:24.022Z,22
2022-11-03T06:15:23.915Z,50
2022-11-03T06:30:24.786Z,80
2022-11-03T06:45:24.290Z,59
2022-11-03T07:00:37.756Z,56
2022-11-03T07:15:24.965Z,53
2022-11-03T07:30:24.252Z,45
2022-11-03T07:45:24.245Z,33
2022-11-03T08:00:24.734Z,27
2022-11-03T08:15:24.255Z,47
2022-11-03T08:30:24.830Z,44
2022-11-03T08:45:25.159Z,22
2022-11-03T09:00:24.154Z,25
2022-11-03T09:15:24.106Z,23
2022-11-03T09:30:24.137Z,24
2022-11-03T09:45:24.852Z,17
2022-11-03T10:00:24.695Z,8
2022-11-03T10:15:25.125Z,9
2022-11-03T10:30:24.755Z,9
2022-11-03T10:45:24.604Z,6
2022-11-03T11:00:24.989Z,7
2022-11-03T11:15:24.569Z,7
2022-11-03T11:30:24.439Z,5
2022-11-03T11:45:24.758Z,9
2022-11-03T12:00:24.827Z,8
2022-11-03T12:15:24.348Z,8
2022-11-03T12:30:25.022Z,17
2022-11-03T12:45:24.092Z,3
2022-11-03T13:00:24.551Z,6
2022-11-03T13:15:24.611Z,7
2022-11-03T13:30:24.467Z,6
2022-11-03T13:45:24.254Z,7
2022-11-03T14:00:24.141Z,8
2022-11-03T14:15:24.671Z,7
2022-11-03T14:30:23.856Z,13
2022-11-03T14:45:24.779Z,12
2022-11-03T15:00:24.638Z,8
2022-11-03T15:15:24.812Z,14
2022-11-03T15:30:24.455Z,15
2022-11-03T15:45:24.546Z,21
2022-11-03T16:00:24.257Z,17
2022-11-03T16:15:24.451Z,12
2022-11-03T16:30:24.736Z,20
2022-11-03T16:45:23.899Z,16
2022-11-03T17:00:23.995Z,14
2022-11-03T17:15:24.415Z,15
2022-11-03T17:30:24.491Z,18
2022-11-03T17:45:24.913Z,22
2022-11-03T18:00:24.172Z,23
2022-11-03T18:15:23.907Z,29
2022-11-03T18:30:24.327Z,24
2022-11-03T18:45:24.381Z,27
2022-11-03T19:00:24.562Z,26
2022-11-03T19:15:24.980Z,21
2022-11-03T19:30:24.118Z,20
2022-11-03T19:45:24.621Z,21
2022-11-03T20:00:24.586Z,19
2022-11-03T20:15:24.949Z,17
2022-11-03T20:30:24.411Z,18
2022-11-03T20:45:24.693Z,16
2022-11-03T21:00:24.064Z,22
2022-11-03T21:15:30.732Z,18
2022-11-03T21:30:24.352Z,21
2022-11-03T21:45:24.692Z,19
2022-11-03T22:00:24.416Z,19
2022-11-03T22:15:24.571Z,23
2022-11-03T22:30:24.552Z,25
2022-11-03T22:45:24.216Z,17
2022-11-03T23:00:24.287Z,19
2022-11-03T23:15:24.277Z,20
2022-11-03T23:30:24.583Z,22
2022-11-03T23:45:24.641Z,23
